sensor_id;sensor_type;location;lat;lon;timestamp;P1;durP1;ratioP1;P2;durP2;ratioP2
16401;SDS011;8310;44.626;11.176;2023-02-28T00:01:45;8.80;;;7.90;;
16401;SDS011;8310;44.626;11.176;2023-02-28T00:04:14;9.88;;;8.68;;
16401;SDS011;8310;44.626;11.176;2023-02-28T00:06:42;8.98;;;8.05;;
16401;SDS011;8310;44.626;11.176;2023-02-28T00:09:09;11.80;;;8.90;;
16401;SDS011;8310;44.626;11.176;2023-02-28T00:11:37;10.82;;;9.10;;
16401;SDS011;8310;44.626;11.176;2023-02-28T00:14:05;11.25;;;8.82;;
16401;SDS011;8310;44.626;11.176;2023-02-28T00:16:33;10.52;;;8.90;;
16401;SDS011;8310;44.626;11.176;2023-02-28T00:19:02;14.13;;;9.95;;
16401;SDS011;8310;44.626;11.176;2023-02-28T00:21:32;15.57;;;10.18;;
16401;SDS011;8310;44.626;11.176;2023-02-28T00:24:00;14.85;;;11.20;;
16401;SDS011;8310;44.626;11.176;2023-02-28T00:26:28;9.35;;;8.38;;
16401;SDS011;8310;44.626;11.176;2023-02-28T00:28:57;13.05;;;9.57;;
16401;SDS011;8310;44.626;11.176;2023-02-28T00:31:25;12.25;;;8.63;;
16401;SDS011;8310;44.626;11.176;2023-02-28T00:33:54;10.13;;;7.80;;
16401;SDS011;8310;44.626;11.176;2023-02-28T00:36:22;10.85;;;8.30;;
16401;SDS011;8310;44.626;11.176;2023-02-28T00:38:52;11.80;;;8.30;;
16401;SDS011;8310;44.626;11.176;2023-02-28T00:41:21;12.20;;;8.50;;
16401;SDS011;8310;44.626;11.176;2023-02-28T00:43:49;12.80;;;8.85;;
16401;SDS011;8310;44.626;11.176;2023-02-28T00:46:18;10.73;;;8.60;;
16401;SDS011;8310;44.626;11.176;2023-02-28T00:48:46;9.15;;;8.18;;
16401;SDS011;8310;44.626;11.176;2023-02-28T00:51:14;9.77;;;7.90;;
16401;SDS011;8310;44.626;11.176;2023-02-28T00:53:42;14.35;;;8.93;;
16401;SDS011;8310;44.626;11.176;2023-02-28T00:56:12;11.48;;;8.88;;
16401;SDS011;8310;44.626;11.176;2023-02-28T00:58:40;9.23;;;8.23;;
16401;SDS011;8310;44.626;11.176;2023-02-28T01:01:09;16.50;;;9.43;;
16401;SDS011;8310;44.626;11.176;2023-02-28T01:03:37;10.98;;;8.50;;
16401;SDS011;8310;44.626;11.176;2023-02-28T01:06:05;10.15;;;9.00;;
16401;SDS011;8310;44.626;11.176;2023-02-28T01:08:33;10.77;;;8.13;;
16401;SDS011;8310;44.626;11.176;2023-02-28T01:11:06;9.27;;;8.27;;
16401;SDS011;8310;44.626;11.176;2023-02-28T01:13:36;9.35;;;8.20;;
16401;SDS011;8310;44.626;11.176;2023-02-28T01:16:05;9.38;;;8.35;;
16401;SDS011;8310;44.626;11.176;2023-02-28T01:18:34;12.20;;;8.63;;
16401;SDS011;8310;44.626;11.176;2023-02-28T01:21:04;11.18;;;8.25;;
16401;SDS011;8310;44.626;11.176;2023-02-28T01:23:32;11.60;;;8.65;;
16401;SDS011;8310;44.626;11.176;2023-02-28T01:26:03;10.65;;;8.88;;
16401;SDS011;8310;44.626;11.176;2023-02-28T01:28:32;10.93;;;8.45;;
16401;SDS011;8310;44.626;11.176;2023-02-28T01:31:04;11.57;;;9.10;;
16401;SDS011;8310;44.626;11.176;2023-02-28T01:33:32;10.38;;;8.75;;
16401;SDS011;8310;44.626;11.176;2023-02-28T01:36:00;10.07;;;8.63;;
16401;SDS011;8310;44.626;11.176;2023-02-28T01:38:30;11.60;;;8.85;;
16401;SDS011;8310;44.626;11.176;2023-02-28T01:40:58;11.30;;;9.52;;
16401;SDS011;8310;44.626;11.176;2023-02-28T01:43:27;10.65;;;9.55;;
16401;SDS011;8310;44.626;11.176;2023-02-28T01:45:56;8.77;;;7.97;;
16401;SDS011;8310;44.626;11.176;2023-02-28T01:48:27;11.25;;;8.57;;
16401;SDS011;8310;44.626;11.176;2023-02-28T01:51:01;8.93;;;8.00;;
16401;SDS011;8310;44.626;11.176;2023-02-28T01:53:34;9.05;;;7.90;;
16401;SDS011;8310;44.626;11.176;2023-02-28T01:56:06;8.80;;;8.00;;
16401;SDS011;8310;44.626;11.176;2023-02-28T01:58:35;9.68;;;8.52;;
16401;SDS011;8310;44.626;11.176;2023-02-28T02:01:04;8.85;;;7.90;;
16401;SDS011;8310;44.626;11.176;2023-02-28T02:03:34;10.30;;;8.00;;
16401;SDS011;8310;44.626;11.176;2023-02-28T02:06:03;9.48;;;8.32;;
16401;SDS011;8310;44.626;11.176;2023-02-28T02:08:30;9.60;;;7.97;;
16401;SDS011;8310;44.626;11.176;2023-02-28T02:10:59;8.38;;;7.45;;
16401;SDS011;8310;44.626;11.176;2023-02-28T02:16:29;8.05;;;6.80;;
16401;SDS011;8310;44.626;11.176;2023-02-28T02:19:12;7.78;;;7.03;;
16401;SDS011;8310;44.626;11.176;2023-02-28T02:22:03;8.82;;;7.55;;
16401;SDS011;8310;44.626;11.176;2023-02-28T02:24:56;8.05;;;7.05;;
16401;SDS011;8310;44.626;11.176;2023-02-28T02:27:39;8.27;;;7.47;;
16401;SDS011;8310;44.626;11.176;2023-02-28T02:30:21;7.93;;;6.70;;
16401;SDS011;8310;44.626;11.176;2023-02-28T02:33:15;8.32;;;6.80;;
16401;SDS011;8310;44.626;11.176;2023-02-28T02:36:11;7.50;;;6.70;;
16401;SDS011;8310;44.626;11.176;2023-02-28T02:38:42;9.13;;;6.97;;
16401;SDS011;8310;44.626;11.176;2023-02-28T02:41:15;7.47;;;6.78;;
16401;SDS011;8310;44.626;11.176;2023-02-28T02:43:52;9.40;;;7.18;;
16401;SDS011;8310;44.626;11.176;2023-02-28T02:46:24;11.18;;;7.50;;
16401;SDS011;8310;44.626;11.176;2023-02-28T02:48:56;7.78;;;6.97;;
16401;SDS011;8310;44.626;11.176;2023-02-28T02:51:29;8.23;;;7.35;;
16401;SDS011;8310;44.626;11.176;2023-02-28T02:54:00;9.65;;;7.75;;
16401;SDS011;8310;44.626;11.176;2023-02-28T02:56:32;8.15;;;7.22;;
16401;SDS011;8310;44.626;11.176;2023-02-28T02:59:03;8.45;;;6.95;;
16401;SDS011;8310;44.626;11.176;2023-02-28T03:01:35;9.73;;;7.03;;
16401;SDS011;8310;44.626;11.176;2023-02-28T03:04:09;8.80;;;7.68;;
16401;SDS011;8310;44.626;11.176;2023-02-28T03:06:41;9.65;;;7.75;;
16401;SDS011;8310;44.626;11.176;2023-02-28T03:09:09;9.90;;;8.95;;
16401;SDS011;8310;44.626;11.176;2023-02-28T03:11:38;9.82;;;8.15;;
16401;SDS011;8310;44.626;11.176;2023-02-28T03:14:09;9.50;;;7.93;;
16401;SDS011;8310;44.626;11.176;2023-02-28T03:16:52;9.45;;;7.90;;
16401;SDS011;8310;44.626;11.176;2023-02-28T03:19:51;10.20;;;8.10;;
16401;SDS011;8310;44.626;11.176;2023-02-28T03:22:40;8.98;;;7.40;;
16401;SDS011;8310;44.626;11.176;2023-02-28T03:25:18;10.00;;;7.50;;
16401;SDS011;8310;44.626;11.176;2023-02-28T03:27:57;8.18;;;7.22;;
16401;SDS011;8310;44.626;11.176;2023-02-28T03:30:31;8.57;;;7.13;;
16401;SDS011;8310;44.626;11.176;2023-02-28T03:33:06;7.50;;;6.75;;
16401;SDS011;8310;44.626;11.176;2023-02-28T03:35:38;12.05;;;7.93;;
16401;SDS011;8310;44.626;11.176;2023-02-28T03:38:12;9.75;;;7.95;;
16401;SDS011;8310;44.626;11.176;2023-02-28T03:40:45;9.05;;;8.07;;
16401;SDS011;8310;44.626;11.176;2023-02-28T03:43:18;8.15;;;7.35;;
16401;SDS011;8310;44.626;11.176;2023-02-28T03:45:51;9.07;;;7.43;;
16401;SDS011;8310;44.626;11.176;2023-02-28T03:48:21;9.10;;;8.18;;
16401;SDS011;8310;44.626;11.176;2023-02-28T03:50:52;10.02;;;7.95;;
16401;SDS011;8310;44.626;11.176;2023-02-28T03:53:27;9.00;;;8.10;;
16401;SDS011;8310;44.626;11.176;2023-02-28T03:55:58;9.27;;;7.55;;
16401;SDS011;8310;44.626;11.176;2023-02-28T03:58:32;8.30;;;7.47;;
16401;SDS011;8310;44.626;11.176;2023-02-28T04:01:06;10.27;;;8.40;;
16401;SDS011;8310;44.626;11.176;2023-02-28T04:03:35;9.55;;;8.15;;
16401;SDS011;8310;44.626;11.176;2023-02-28T04:06:04;9.38;;;8.27;;
16401;SDS011;8310;44.626;11.176;2023-02-28T04:08:35;9.52;;;7.53;;
16401;SDS011;8310;44.626;11.176;2023-02-28T04:11:04;8.85;;;8.00;;
16401;SDS011;8310;44.626;11.176;2023-02-28T04:13:35;10.57;;;8.77;;
16401;SDS011;8310;44.626;11.176;2023-02-28T04:16:06;10.70;;;7.70;;
16401;SDS011;8310;44.626;11.176;2023-02-28T04:18:37;10.80;;;7.53;;
16401;SDS011;8310;44.626;11.176;2023-02-28T04:21:04;9.95;;;8.25;;
16401;SDS011;8310;44.626;11.176;2023-02-28T04:23:32;10.43;;;8.07;;
16401;SDS011;8310;44.626;11.176;2023-02-28T04:26:01;11.02;;;8.43;;
16401;SDS011;8310;44.626;11.176;2023-02-28T04:28:29;9.38;;;8.25;;
16401;SDS011;8310;44.626;11.176;2023-02-28T04:30:57;9.07;;;8.20;;
16401;SDS011;8310;44.626;11.176;2023-02-28T04:33:26;9.55;;;7.53;;
16401;SDS011;8310;44.626;11.176;2023-02-28T04:35:57;9.85;;;8.55;;
16401;SDS011;8310;44.626;11.176;2023-02-28T04:38:26;9.65;;;8.75;;
16401;SDS011;8310;44.626;11.176;2023-02-28T04:40:56;10.45;;;8.18;;
16401;SDS011;8310;44.626;11.176;2023-02-28T04:43:26;12.38;;;8.80;;
16401;SDS011;8310;44.626;11.176;2023-02-28T04:45:55;10.43;;;9.02;;
16401;SDS011;8310;44.626;11.176;2023-02-28T04:48:23;10.52;;;9.23;;
16401;SDS011;8310;44.626;11.176;2023-02-28T04:50:51;10.57;;;8.85;;
16401;SDS011;8310;44.626;11.176;2023-02-28T04:53:19;10.25;;;8.70;;
16401;SDS011;8310;44.626;11.176;2023-02-28T04:55:47;10.10;;;9.13;;
16401;SDS011;8310;44.626;11.176;2023-02-28T04:58:14;11.80;;;8.85;;
16401;SDS011;8310;44.626;11.176;2023-02-28T05:00:43;11.85;;;9.88;;
16401;SDS011;8310;44.626;11.176;2023-02-28T05:03:14;10.73;;;9.57;;
16401;SDS011;8310;44.626;11.176;2023-02-28T05:05:41;9.73;;;8.73;;
16401;SDS011;8310;44.626;11.176;2023-02-28T05:08:09;10.98;;;9.88;;
16401;SDS011;8310;44.626;11.176;2023-02-28T05:10:37;9.98;;;9.00;;
16401;SDS011;8310;44.626;11.176;2023-02-28T05:13:05;10.55;;;9.10;;
16401;SDS011;8310;44.626;11.176;2023-02-28T05:15:37;11.63;;;9.38;;
16401;SDS011;8310;44.626;11.176;2023-02-28T05:18:07;10.80;;;9.03;;
16401;SDS011;8310;44.626;11.176;2023-02-28T05:20:35;12.20;;;9.85;;
16401;SDS011;8310;44.626;11.176;2023-02-28T05:23:02;9.95;;;8.75;;
16401;SDS011;8310;44.626;11.176;2023-02-28T05:25:31;9.95;;;8.98;;
16401;SDS011;8310;44.626;11.176;2023-02-28T05:27:58;10.50;;;9.38;;
16401;SDS011;8310;44.626;11.176;2023-02-28T05:30:26;10.93;;;9.68;;
16401;SDS011;8310;44.626;11.176;2023-02-28T05:32:54;9.80;;;8.80;;
16401;SDS011;8310;44.626;11.176;2023-02-28T05:35:23;9.88;;;8.85;;
16401;SDS011;8310;44.626;11.176;2023-02-28T05:37:50;10.45;;;9.35;;
16401;SDS011;8310;44.626;11.176;2023-02-28T05:40:18;10.35;;;9.30;;
16401;SDS011;8310;44.626;11.176;2023-02-28T05:42:46;11.90;;;9.68;;
16401;SDS011;8310;44.626;11.176;2023-02-28T05:45:14;10.43;;;8.98;;
16401;SDS011;8310;44.626;11.176;2023-02-28T05:47:42;11.27;;;9.73;;
16401;SDS011;8310;44.626;11.176;2023-02-28T05:50:10;13.13;;;9.98;;
16401;SDS011;8310;44.626;11.176;2023-02-28T05:52:40;9.98;;;8.98;;
16401;SDS011;8310;44.626;11.176;2023-02-28T05:55:08;11.05;;;9.88;;
16401;SDS011;8310;44.626;11.176;2023-02-28T05:57:36;11.90;;;9.63;;
16401;SDS011;8310;44.626;11.176;2023-02-28T06:00:04;11.32;;;10.23;;
16401;SDS011;8310;44.626;11.176;2023-02-28T06:02:32;11.98;;;9.55;;
16401;SDS011;8310;44.626;11.176;2023-02-28T06:05:00;12.68;;;10.18;;
16401;SDS011;8310;44.626;11.176;2023-02-28T06:07:32;10.23;;;9.18;;
16401;SDS011;8310;44.626;11.176;2023-02-28T06:10:01;12.88;;;9.82;;
16401;SDS011;8310;44.626;11.176;2023-02-28T06:12:29;12.48;;;9.40;;
16401;SDS011;8310;44.626;11.176;2023-02-28T06:14:58;11.20;;;10.02;;
16401;SDS011;8310;44.626;11.176;2023-02-28T06:17:26;12.18;;;10.00;;
16401;SDS011;8310;44.626;11.176;2023-02-28T06:19:53;10.82;;;9.57;;
16401;SDS011;8310;44.626;11.176;2023-02-28T06:22:21;11.63;;;9.57;;
16401;SDS011;8310;44.626;11.176;2023-02-28T06:24:50;11.73;;;10.35;;
16401;SDS011;8310;44.626;11.176;2023-02-28T06:27:21;10.82;;;9.55;;
16401;SDS011;8310;44.626;11.176;2023-02-28T06:29:48;11.43;;;10.10;;
16401;SDS011;8310;44.626;11.176;2023-02-28T06:32:20;11.90;;;9.88;;
16401;SDS011;8310;44.626;11.176;2023-02-28T06:34:48;12.40;;;11.20;;
16401;SDS011;8310;44.626;11.176;2023-02-28T06:37:16;11.18;;;9.93;;
16401;SDS011;8310;44.626;11.176;2023-02-28T06:39:44;11.55;;;10.00;;
16401;SDS011;8310;44.626;11.176;2023-02-28T06:42:22;10.70;;;9.60;;
16401;SDS011;8310;44.626;11.176;2023-02-28T06:44:53;12.18;;;10.23;;
16401;SDS011;8310;44.626;11.176;2023-02-28T06:47:21;11.50;;;10.27;;
16401;SDS011;8310;44.626;11.176;2023-02-28T06:49:49;11.65;;;10.43;;
16401;SDS011;8310;44.626;11.176;2023-02-28T06:52:17;11.48;;;9.93;;
16401;SDS011;8310;44.626;11.176;2023-02-28T06:54:45;13.20;;;9.70;;
16401;SDS011;8310;44.626;11.176;2023-02-28T06:57:26;12.70;;;10.30;;
16401;SDS011;8310;44.626;11.176;2023-02-28T06:59:56;11.75;;;10.15;;
16401;SDS011;8310;44.626;11.176;2023-02-28T07:02:24;11.65;;;10.27;;
16401;SDS011;8310;44.626;11.176;2023-02-28T07:04:52;11.45;;;9.55;;
16401;SDS011;8310;44.626;11.176;2023-02-28T07:07:20;14.32;;;9.18;;
16401;SDS011;8310;44.626;11.176;2023-02-28T07:09:47;10.98;;;9.43;;
16401;SDS011;8310;44.626;11.176;2023-02-28T07:12:15;12.65;;;10.63;;
16401;SDS011;8310;44.626;11.176;2023-02-28T07:14:45;10.55;;;9.13;;
16401;SDS011;8310;44.626;11.176;2023-02-28T07:17:13;10.45;;;9.32;;
16401;SDS011;8310;44.626;11.176;2023-02-28T07:19:42;10.52;;;9.45;;
16401;SDS011;8310;44.626;11.176;2023-02-28T07:22:09;11.40;;;10.00;;
16401;SDS011;8310;44.626;11.176;2023-02-28T07:24:38;11.80;;;10.60;;
16401;SDS011;8310;44.626;11.176;2023-02-28T07:27:06;12.07;;;10.10;;
16401;SDS011;8310;44.626;11.176;2023-02-28T07:29:34;11.30;;;10.20;;
16401;SDS011;8310;44.626;11.176;2023-02-28T07:32:04;12.23;;;10.40;;
16401;SDS011;8310;44.626;11.176;2023-02-28T07:34:32;12.48;;;10.02;;
16401;SDS011;8310;44.626;11.176;2023-02-28T07:37:00;14.57;;;10.48;;
16401;SDS011;8310;44.626;11.176;2023-02-28T07:39:28;11.40;;;10.20;;
16401;SDS011;8310;44.626;11.176;2023-02-28T07:41:57;14.38;;;10.32;;
16401;SDS011;8310;44.626;11.176;2023-02-28T07:44:25;11.60;;;10.40;;
16401;SDS011;8310;44.626;11.176;2023-02-28T07:46:52;11.98;;;10.18;;
16401;SDS011;8310;44.626;11.176;2023-02-28T07:49:22;12.15;;;10.05;;
16401;SDS011;8310;44.626;11.176;2023-02-28T07:52:03;10.93;;;9.82;;
16401;SDS011;8310;44.626;11.176;2023-02-28T07:54:31;11.60;;;10.38;;
16401;SDS011;8310;44.626;11.176;2023-02-28T07:56:59;12.40;;;10.02;;
16401;SDS011;8310;44.626;11.176;2023-02-28T07:59:41;11.65;;;10.45;;
16401;SDS011;8310;44.626;11.176;2023-02-28T08:02:09;12.48;;;9.40;;
16401;SDS011;8310;44.626;11.176;2023-02-28T08:04:42;11.25;;;10.10;;
16401;SDS011;8310;44.626;11.176;2023-02-28T08:07:11;11.02;;;9.80;;
16401;SDS011;8310;44.626;11.176;2023-02-28T08:09:39;11.25;;;9.70;;
16401;SDS011;8310;44.626;11.176;2023-02-28T08:12:08;11.18;;;9.98;;
16401;SDS011;8310;44.626;11.176;2023-02-28T08:14:37;11.38;;;9.95;;
16401;SDS011;8310;44.626;11.176;2023-02-28T08:17:06;12.15;;;10.88;;
16401;SDS011;8310;44.626;11.176;2023-02-28T08:19:34;11.68;;;9.82;;
16401;SDS011;8310;44.626;11.176;2023-02-28T08:22:03;11.13;;;9.93;;
16401;SDS011;8310;44.626;11.176;2023-02-28T08:24:31;11.40;;;9.73;;
16401;SDS011;8310;44.626;11.176;2023-02-28T08:26:59;12.98;;;9.55;;
16401;SDS011;8310;44.626;11.176;2023-02-28T08:29:28;11.15;;;8.85;;
16401;SDS011;8310;44.626;11.176;2023-02-28T08:31:55;11.30;;;10.15;;
16401;SDS011;8310;44.626;11.176;2023-02-28T08:34:23;11.10;;;10.00;;
16401;SDS011;8310;44.626;11.176;2023-02-28T08:36:51;13.02;;;10.23;;
16401;SDS011;8310;44.626;11.176;2023-02-28T08:39:20;12.25;;;10.70;;
16401;SDS011;8310;44.626;11.176;2023-02-28T08:41:49;12.40;;;10.70;;
16401;SDS011;8310;44.626;11.176;2023-02-28T08:44:17;13.43;;;10.02;;
16401;SDS011;8310;44.626;11.176;2023-02-28T08:46:44;13.85;;;10.20;;
16401;SDS011;8310;44.626;11.176;2023-02-28T08:49:11;14.50;;;10.30;;
16401;SDS011;8310;44.626;11.176;2023-02-28T08:51:39;16.10;;;10.70;;
16401;SDS011;8310;44.626;11.176;2023-02-28T08:54:07;12.15;;;10.82;;
16401;SDS011;8310;44.626;11.176;2023-02-28T08:56:39;11.98;;;10.88;;
16401;SDS011;8310;44.626;11.176;2023-02-28T08:59:08;13.80;;;10.20;;
16401;SDS011;8310;44.626;11.176;2023-02-28T09:01:36;12.88;;;10.68;;
16401;SDS011;8310;44.626;11.176;2023-02-28T09:04:03;11.48;;;10.02;;
16401;SDS011;8310;44.626;11.176;2023-02-28T09:06:33;12.98;;;10.60;;
16401;SDS011;8310;44.626;11.176;2023-02-28T09:09:01;14.80;;;10.68;;
16401;SDS011;8310;44.626;11.176;2023-02-28T09:11:31;11.18;;;9.95;;
16401;SDS011;8310;44.626;11.176;2023-02-28T09:14:01;13.00;;;10.57;;
16401;SDS011;8310;44.626;11.176;2023-02-28T09:16:30;12.95;;;10.57;;
16401;SDS011;8310;44.626;11.176;2023-02-28T09:18:59;11.57;;;10.38;;
16401;SDS011;8310;44.626;11.176;2023-02-28T09:21:26;13.45;;;10.25;;
16401;SDS011;8310;44.626;11.176;2023-02-28T09:23:54;12.57;;;10.50;;
16401;SDS011;8310;44.626;11.176;2023-02-28T09:26:23;11.15;;;9.95;;
16401;SDS011;8310;44.626;11.176;2023-02-28T09:28:52;11.35;;;10.05;;
16401;SDS011;8310;44.626;11.176;2023-02-28T09:31:22;11.73;;;10.05;;
16401;SDS011;8310;44.626;11.176;2023-02-28T09:33:52;11.38;;;9.93;;
16401;SDS011;8310;44.626;11.176;2023-02-28T09:36:21;11.10;;;9.90;;
16401;SDS011;8310;44.626;11.176;2023-02-28T09:38:50;12.38;;;10.57;;
16401;SDS011;8310;44.626;11.176;2023-02-28T09:41:19;12.88;;;10.00;;
16401;SDS011;8310;44.626;11.176;2023-02-28T09:43:49;12.18;;;10.07;;
16401;SDS011;8310;44.626;11.176;2023-02-28T09:46:24;11.63;;;9.07;;
16401;SDS011;8310;44.626;11.176;2023-02-28T09:48:59;12.40;;;10.82;;
16401;SDS011;8310;44.626;11.176;2023-02-28T09:51:37;12.88;;;10.63;;
16401;SDS011;8310;44.626;11.176;2023-02-28T09:54:12;13.45;;;10.07;;
16401;SDS011;8310;44.626;11.176;2023-02-28T09:56:44;11.27;;;10.18;;
16401;SDS011;8310;44.626;11.176;2023-02-28T09:59:18;11.65;;;10.38;;
16401;SDS011;8310;44.626;11.176;2023-02-28T10:01:59;11.25;;;10.10;;
16401;SDS011;8310;44.626;11.176;2023-02-28T10:04:38;13.70;;;10.50;;
16401;SDS011;8310;44.626;11.176;2023-02-28T10:07:15;12.35;;;10.85;;
16401;SDS011;8310;44.626;11.176;2023-02-28T10:09:50;12.90;;;10.32;;
16401;SDS011;8310;44.626;11.176;2023-02-28T10:12:22;11.57;;;10.38;;
16401;SDS011;8310;44.626;11.176;2023-02-28T10:14:51;11.65;;;9.77;;
16401;SDS011;8310;44.626;11.176;2023-02-28T10:17:23;13.68;;;11.52;;
16401;SDS011;8310;44.626;11.176;2023-02-28T10:19:56;13.20;;;11.32;;
16401;SDS011;8310;44.626;11.176;2023-02-28T10:22:34;13.25;;;11.43;;
16401;SDS011;8310;44.626;11.176;2023-02-28T10:25:05;11.27;;;10.23;;
16401;SDS011;8310;44.626;11.176;2023-02-28T10:27:44;11.68;;;10.48;;
16401;SDS011;8310;44.626;11.176;2023-02-28T10:30:12;12.55;;;11.23;;
16401;SDS011;8310;44.626;11.176;2023-02-28T10:32:43;13.45;;;10.80;;
16401;SDS011;8310;44.626;11.176;2023-02-28T10:35:16;12.05;;;10.77;;
16401;SDS011;8310;44.626;11.176;2023-02-28T10:37:45;12.52;;;10.90;;
16401;SDS011;8310;44.626;11.176;2023-02-28T10:40:25;13.02;;;11.00;;
16401;SDS011;8310;44.626;11.176;2023-02-28T10:42:55;12.10;;;10.35;;
16401;SDS011;8310;44.626;11.176;2023-02-28T10:45:24;12.93;;;11.50;;
16401;SDS011;8310;44.626;11.176;2023-02-28T10:47:55;13.85;;;11.00;;
16401;SDS011;8310;44.626;11.176;2023-02-28T10:50:27;13.18;;;9.93;;
16401;SDS011;8310;44.626;11.176;2023-02-28T10:53:05;10.98;;;9.88;;
16401;SDS011;8310;44.626;11.176;2023-02-28T10:55:41;11.93;;;9.82;;
16401;SDS011;8310;44.626;11.176;2023-02-28T10:58:20;11.20;;;10.10;;
16401;SDS011;8310;44.626;11.176;2023-02-28T11:00:49;12.32;;;9.82;;
16401;SDS011;8310;44.626;11.176;2023-02-28T11:06:13;12.65;;;10.43;;
16401;SDS011;8310;44.626;11.176;2023-02-28T11:08:47;12.15;;;10.85;;
16401;SDS011;8310;44.626;11.176;2023-02-28T11:11:17;12.15;;;10.48;;
16401;SDS011;8310;44.626;11.176;2023-02-28T11:13:46;11.50;;;10.35;;
16401;SDS011;8310;44.626;11.176;2023-02-28T11:16:17;11.35;;;10.15;;
16401;SDS011;8310;44.626;11.176;2023-02-28T11:18:48;11.95;;;9.85;;
16401;SDS011;8310;44.626;11.176;2023-02-28T11:21:19;12.20;;;10.90;;
16401;SDS011;8310;44.626;11.176;2023-02-28T11:23:49;17.55;;;11.15;;
16401;SDS011;8310;44.626;11.176;2023-02-28T11:26:35;12.38;;;10.30;;
16401;SDS011;8310;44.626;11.176;2023-02-28T11:29:09;12.00;;;10.50;;
16401;SDS011;8310;44.626;11.176;2023-02-28T11:31:39;11.00;;;9.90;;
16401;SDS011;8310;44.626;11.176;2023-02-28T11:34:24;12.25;;;10.63;;
16401;SDS011;8310;44.626;11.176;2023-02-28T11:36:54;12.40;;;10.60;;
16401;SDS011;8310;44.626;11.176;2023-02-28T11:39:23;13.05;;;10.40;;
16401;SDS011;8310;44.626;11.176;2023-02-28T11:41:55;14.57;;;10.65;;
16401;SDS011;8310;44.626;11.176;2023-02-28T11:44:35;13.30;;;10.80;;
16401;SDS011;8310;44.626;11.176;2023-02-28T11:47:24;12.18;;;10.98;;
16401;SDS011;8310;44.626;11.176;2023-02-28T11:50:03;12.15;;;10.93;;
16401;SDS011;8310;44.626;11.176;2023-02-28T11:52:45;11.52;;;10.40;;
16401;SDS011;8310;44.626;11.176;2023-02-28T11:55:18;12.63;;;10.80;;
16401;SDS011;8310;44.626;11.176;2023-02-28T11:57:58;11.07;;;10.07;;
16401;SDS011;8310;44.626;11.176;2023-02-28T12:00:55;11.73;;;10.52;;
16401;SDS011;8310;44.626;11.176;2023-02-28T12:03:31;11.30;;;10.10;;
16401;SDS011;8310;44.626;11.176;2023-02-28T12:06:15;12.10;;;9.90;;
16401;SDS011;8310;44.626;11.176;2023-02-28T12:08:49;13.05;;;10.80;;
16401;SDS011;8310;44.626;11.176;2023-02-28T12:11:41;12.07;;;10.80;;
16401;SDS011;8310;44.626;11.176;2023-02-28T12:14:30;12.18;;;10.65;;
16401;SDS011;8310;44.626;11.176;2023-02-28T12:17:22;11.98;;;10.73;;
16401;SDS011;8310;44.626;11.176;2023-02-28T12:20:02;11.38;;;10.05;;
16401;SDS011;8310;44.626;11.176;2023-02-28T12:22:42;11.82;;;10.38;;
16401;SDS011;8310;44.626;11.176;2023-02-28T12:25:38;12.43;;;11.13;;
16401;SDS011;8310;44.626;11.176;2023-02-28T12:28:13;12.43;;;10.75;;
16401;SDS011;8310;44.626;11.176;2023-02-28T12:30:46;13.55;;;11.52;;
16401;SDS011;8310;44.626;11.176;2023-02-28T12:33:20;11.70;;;10.50;;
16401;SDS011;8310;44.626;11.176;2023-02-28T12:35:52;11.98;;;10.88;;
16401;SDS011;8310;44.626;11.176;2023-02-28T12:38:24;12.38;;;10.95;;
16401;SDS011;8310;44.626;11.176;2023-02-28T12:40:56;12.45;;;11.15;;
16401;SDS011;8310;44.626;11.176;2023-02-28T12:43:30;13.60;;;12.20;;
16401;SDS011;8310;44.626;11.176;2023-02-28T12:46:02;15.57;;;12.30;;
16401;SDS011;8310;44.626;11.176;2023-02-28T12:48:37;12.43;;;11.13;;
16401;SDS011;8310;44.626;11.176;2023-02-28T12:51:08;11.57;;;10.32;;
16401;SDS011;8310;44.626;11.176;2023-02-28T12:53:42;12.15;;;10.85;;
16401;SDS011;8310;44.626;11.176;2023-02-28T12:56:29;11.60;;;10.23;;
16401;SDS011;8310;44.626;11.176;2023-02-28T12:59:07;12.15;;;10.85;;
16401;SDS011;8310;44.626;11.176;2023-02-28T13:01:51;12.38;;;11.05;;
16401;SDS011;8310;44.626;11.176;2023-02-28T13:07:21;14.55;;;11.07;;
16401;SDS011;8310;44.626;11.176;2023-02-28T13:10:05;11.00;;;9.45;;
16401;SDS011;8310;44.626;11.176;2023-02-28T13:12:34;10.63;;;9.55;;
16401;SDS011;8310;44.626;11.176;2023-02-28T13:15:07;10.88;;;9.77;;
16401;SDS011;8310;44.626;11.176;2023-02-28T13:17:47;11.48;;;10.38;;
16401;SDS011;8310;44.626;11.176;2023-02-28T13:20:17;11.70;;;10.50;;
16401;SDS011;8310;44.626;11.176;2023-02-28T13:22:46;10.88;;;9.88;;
16401;SDS011;8310;44.626;11.176;2023-02-28T13:31:28;11.38;;;10.20;;
16401;SDS011;8310;44.626;11.176;2023-02-28T14:50:51;18.95;;;17.17;;
16401;SDS011;8310;44.626;11.176;2023-02-28T14:53:24;18.95;;;17.20;;
16401;SDS011;8310;44.626;11.176;2023-02-28T18:52:09;34.45;;;25.80;;
16401;SDS011;8310;44.626;11.176;2023-02-28T18:54:37;32.13;;;25.35;;
16401;SDS011;8310;44.626;11.176;2023-02-28T18:57:05;29.52;;;23.02;;
16401;SDS011;8310;44.626;11.176;2023-02-28T18:59:32;32.83;;;24.52;;
16401;SDS011;8310;44.626;11.176;2023-02-28T19:02:00;30.45;;;23.58;;
16401;SDS011;8310;44.626;11.176;2023-02-28T19:04:29;28.77;;;22.30;;
16401;SDS011;8310;44.626;11.176;2023-02-28T19:06:57;32.65;;;24.50;;
16401;SDS011;8310;44.626;11.176;2023-02-28T19:09:24;32.75;;;24.38;;
16401;SDS011;8310;44.626;11.176;2023-02-28T19:11:52;32.10;;;24.75;;
16401;SDS011;8310;44.626;11.176;2023-02-28T19:14:20;33.72;;;24.83;;
16401;SDS011;8310;44.626;11.176;2023-02-28T19:16:48;33.92;;;24.52;;
16401;SDS011;8310;44.626;11.176;2023-02-28T19:19:16;32.92;;;24.75;;
16401;SDS011;8310;44.626;11.176;2023-02-28T19:21:45;34.75;;;24.73;;
16401;SDS011;8310;44.626;11.176;2023-02-28T19:24:12;33.67;;;25.13;;
16401;SDS011;8310;44.626;11.176;2023-02-28T19:26:40;34.72;;;25.13;;
16401;SDS011;8310;44.626;11.176;2023-02-28T19:29:07;35.03;;;23.85;;
16401;SDS011;8310;44.626;11.176;2023-02-28T19:31:35;33.35;;;25.17;;
16401;SDS011;8310;44.626;11.176;2023-02-28T19:34:03;36.53;;;26.48;;
16401;SDS011;8310;44.626;11.176;2023-02-28T19:36:30;38.15;;;25.88;;
16401;SDS011;8310;44.626;11.176;2023-02-28T19:38:59;34.45;;;26.33;;
16401;SDS011;8310;44.626;11.176;2023-02-28T19:41:27;32.70;;;25.13;;
16401;SDS011;8310;44.626;11.176;2023-02-28T19:43:54;33.58;;;25.73;;
16401;SDS011;8310;44.626;11.176;2023-02-28T19:46:22;33.08;;;24.90;;
16401;SDS011;8310;44.626;11.176;2023-02-28T19:48:51;33.05;;;24.88;;
16401;SDS011;8310;44.626;11.176;2023-02-28T19:51:19;35.13;;;25.10;;
16401;SDS011;8310;44.626;11.176;2023-02-28T19:53:47;33.33;;;24.58;;
16401;SDS011;8310;44.626;11.176;2023-02-28T19:56:18;34.58;;;24.38;;
16401;SDS011;8310;44.626;11.176;2023-02-28T19:58:46;32.63;;;24.67;;
16401;SDS011;8310;44.626;11.176;2023-02-28T20:01:14;33.85;;;25.63;;
16401;SDS011;8310;44.626;11.176;2023-02-28T20:03:45;31.48;;;25.42;;
16401;SDS011;8310;44.626;11.176;2023-02-28T20:06:14;33.03;;;25.70;;
16401;SDS011;8310;44.626;11.176;2023-02-28T20:08:41;34.78;;;25.35;;
16401;SDS011;8310;44.626;11.176;2023-02-28T20:11:10;33.90;;;25.55;;
16401;SDS011;8310;44.626;11.176;2023-02-28T20:13:40;34.15;;;25.52;;
16401;SDS011;8310;44.626;11.176;2023-02-28T20:16:09;34.50;;;24.42;;
16401;SDS011;8310;44.626;11.176;2023-02-28T20:18:38;31.75;;;24.67;;
16401;SDS011;8310;44.626;11.176;2023-02-28T20:21:08;33.45;;;25.00;;
16401;SDS011;8310;44.626;11.176;2023-02-28T20:23:36;32.90;;;25.20;;